Time;durP1;ratioP1;P1;durP2;ratioP2;P2;SDS_P1;SDS_P2;PMS_P1;PMS_P2;Temp;Humidity;BMP_temperature;BMP_pressure;BME280_temperature;BME280_humidity;BME280_pressure;Samples;Min_cycle;Max_cycle;Signal;HPM_P1;HPM_P2
2021/04/18 00:01:42;;;;;;;9.55;5.47;;;9.10;87.30;;;;;;5030976;28;20021;-69
2021/04/18 00:04:07;;;;;;;9.40;5.68;;;9.00;86.80;;;;;;5030514;28;20028;-69
2021/04/18 00:06:35;;;;;;;11.25;5.93;;;8.90;87.40;;;;;;5030477;28;20451;-68
2021/04/18 00:09:02;;;;;;;12.70;7.43;;;8.90;88.40;;;;;;5030873;28;20069;-69
2021/04/18 00:11:30;;;;;;;10.88;6.82;;;9.10;86.70;;;;;;5030798;28;20039;-69
2021/04/18 00:13:55;;;;;;;10.40;5.72;;;9.30;86.00;;;;;;5037547;28;20370;-69
2021/04/18 00:16:21;;;;;;;9.82;5.68;;;9.20;88.90;;;;;;5031199;28;20030;-69
2021/04/18 00:18:47;;;;;;;9.25;5.57;;;9.10;89.30;;;;;;5031491;28;20034;-68
2021/04/18 00:21:12;;;;;;;10.13;5.93;;;8.90;88.80;;;;;;5030988;28;20025;-69
2021/04/18 00:23:38;;;;;;;9.05;5.13;;;8.90;88.50;;;;;;5036259;28;20044;-69
2021/04/18 00:26:04;;;;;;;8.18;5.53;;;8.90;89.40;;;;;;5050839;28;20057;-69
2021/04/18 00:28:30;;;;;;;9.77;5.65;;;8.80;90.00;;;;;;5045118;28;20078;-69
2021/04/18 00:30:56;;;;;;;9.15;5.28;;;8.70;89.10;;;;;;5050797;28;20029;-69
2021/04/18 00:33:22;;;;;;;8.55;6.13;;;8.60;88.80;;;;;;5033529;28;20369;-69
2021/04/18 00:35:48;;;;;;;8.73;5.50;;;8.60;90.50;;;;;;5043382;28;20087;-69
2021/04/18 00:38:13;;;;;;;9.30;5.72;;;8.60;90.50;;;;;;5054943;28;20502;-69
2021/04/18 00:40:39;;;;;;;11.30;6.93;;;8.80;89.70;;;;;;5047005;28;20037;-68
2021/04/18 00:43:05;;;;;;;13.98;5.03;;;8.80;90.10;;;;;;5049276;28;20024;-69
2021/04/18 00:45:32;;;;;;;9.98;5.68;;;8.80;90.30;;;;;;5036460;28;20443;-69
2021/04/18 00:47:58;;;;;;;9.25;5.75;;;8.60;91.10;;;;;;5040411;28;20025;-69
2021/04/18 00:50:27;;;;;;;9.05;5.20;;;8.80;90.00;;;;;;5034672;28;20088;-69
2021/04/18 00:52:54;;;;;;;10.95;6.50;;;8.50;91.50;;;;;;5034373;28;20040;-69
2021/04/18 00:55:23;;;;;;;8.48;5.30;;;8.60;91.10;;;;;;5034223;28;20106;-69
2021/04/18 00:57:52;;;;;;;10.27;5.20;;;8.50;91.10;;;;;;5042960;28;20171;-69
2021/04/18 01:00:18;;;;;;;8.50;5.57;;;8.60;90.60;;;;;;5036352;28;20124;-69
2021/04/18 01:02:44;;;;;;;7.97;5.65;;;8.70;90.20;;;;;;5034160;28;20486;-69
2021/04/18 01:05:10;;;;;;;10.15;6.20;;;8.80;89.80;;;;;;5042019;28;20120;-69
2021/04/18 01:07:36;;;;;;;11.50;6.30;;;8.90;89.70;;;;;;5034054;28;20060;-69
2021/04/18 01:10:08;;;;;;;12.02;6.15;;;8.90;90.10;;;;;;5044592;28;20495;-68
2021/04/18 01:12:33;;;;;;;9.90;6.13;;;8.90;90.30;;;;;;5034020;28;20041;-69
2021/04/18 01:14:59;;;;;;;10.20;6.18;;;8.80;90.00;;;;;;5039862;28;20392;-69
2021/04/18 01:17:27;;;;;;;9.63;6.57;;;9.00;88.90;;;;;;5051729;28;20391;-69
2021/04/18 01:19:53;;;;;;;9.50;5.57;;;9.00;89.70;;;;;;5038748;28;20033;-69
2021/04/18 01:22:19;;;;;;;8.10;5.25;;;8.90;90.20;;;;;;5034258;28;20048;-68
2021/04/18 01:24:45;;;;;;;9.02;5.97;;;8.80;90.20;;;;;;5033993;28;20838;-69
2021/04/18 01:27:11;;;;;;;9.65;5.85;;;8.80;90.60;;;;;;5033987;28;20037;-68
2021/04/18 01:29:38;;;;;;;9.43;6.07;;;8.70;90.60;;;;;;5033870;28;20021;-69
2021/04/18 01:32:04;;;;;;;10.90;5.55;;;8.70;90.90;;;;;;5038916;28;20038;-68
2021/04/18 01:34:31;;;;;;;10.20;5.82;;;8.70;91.30;;;;;;5033410;28;20025;-69
2021/04/18 01:36:57;;;;;;;10.32;5.50;;;8.50;90.90;;;;;;5034897;28;20495;-69
2021/04/18 01:39:23;;;;;;;10.88;6.35;;;8.50;91.40;;;;;;5040874;28;20422;-69
2021/04/18 01:41:49;;;;;;;10.18;5.70;;;8.40;91.00;;;;;;5033604;28;20515;-68
2021/04/18 01:44:15;;;;;;;9.13;4.63;;;8.50;91.00;;;;;;5032290;28;20034;-69
2021/04/18 01:46:46;;;;;;;8.95;5.93;;;8.40;91.70;;;;;;5036191;28;20055;-69
2021/04/18 01:49:12;;;;;;;10.45;6.00;;;8.30;91.40;;;;;;5040608;28;20056;-68
2021/04/18 01:51:39;;;;;;;9.05;5.40;;;8.30;91.70;;;;;;5038462;28;20044;-69
2021/04/18 01:54:06;;;;;;;9.18;6.47;;;8.30;91.60;;;;;;5049221;28;20425;-69
2021/04/18 01:56:32;;;;;;;9.30;5.10;;;8.30;91.90;;;;;;5035550;28;20030;-69
2021/04/18 01:58:58;;;;;;;9.50;5.43;;;8.20;92.20;;;;;;5033294;28;20108;-69
2021/04/18 02:01:24;;;;;;;8.10;4.63;;;8.20;92.30;;;;;;5036186;28;20506;-69
2021/04/18 02:03:49;;;;;;;9.63;5.78;;;8.30;92.60;;;;;;5051495;28;20037;-69
2021/04/18 02:06:15;;;;;;;9.00;5.53;;;8.30;92.70;;;;;;5047612;28;20489;-69
2021/04/18 02:08:41;;;;;;;9.98;5.30;;;8.20;92.70;;;;;;5039829;28;20128;-68
2021/04/18 02:11:07;;;;;;;8.65;5.72;;;8.30;92.30;;;;;;5033135;28;20079;-68
2021/04/18 02:13:32;;;;;;;9.05;5.07;;;8.20;92.80;;;;;;5032815;28;20044;-69
2021/04/18 02:15:59;;;;;;;10.95;5.82;;;8.30;92.50;;;;;;5033240;28;20443;-69
2021/04/18 02:18:25;;;;;;;9.57;5.10;;;8.10;92.50;;;;;;5042862;28;20020;-68
2021/04/18 02:20:51;;;;;;;8.07;5.50;;;8.00;92.90;;;;;;5051608;28;20112;-68
2021/04/18 02:23:17;;;;;;;10.55;5.88;;;8.00;93.00;;;;;;5040028;28;20036;-69
2021/04/18 02:25:42;;;;;;;8.40;5.53;;;8.00;93.20;;;;;;5032984;28;20048;-69
2021/04/18 02:28:08;;;;;;;8.32;5.82;;;8.10;93.00;;;;;;5032526;28;20484;-69
2021/04/18 02:30:34;;;;;;;10.05;5.72;;;8.10;92.50;;;;;;5032579;28;20443;-69
2021/04/18 02:33:00;;;;;;;7.32;4.97;;;8.20;92.40;;;;;;5032356;28;20116;-69
2021/04/18 02:35:26;;;;;;;7.82;5.13;;;8.10;92.80;;;;;;5032557;28;20552;-69
2021/04/18 02:37:52;;;;;;;8.35;5.20;;;8.00;93.10;;;;;;5032570;28;20017;-69
2021/04/18 02:40:18;;;;;;;8.57;5.75;;;8.00;93.20;;;;;;5034399;28;20365;-69
2021/04/18 02:42:44;;;;;;;7.20;4.47;;;8.00;93.10;;;;;;5037072;28;20108;-69
2021/04/18 02:45:11;;;;;;;7.72;4.65;;;8.00;93.20;;;;;;5050554;28;20064;-68
2021/04/18 02:47:37;;;;;;;8.13;5.13;;;8.10;93.20;;;;;;5041684;28;20037;-68
2021/04/18 02:50:07;;;;;;;7.90;5.03;;;8.00;93.30;;;;;;5035863;28;20024;-68
2021/04/18 02:52:33;;;;;;;10.23;5.97;;;8.00;93.50;;;;;;5052037;28;20043;-69
2021/04/18 02:54:59;;;;;;;9.57;6.15;;;7.90;93.10;;;;;;5034107;28;20033;-69
2021/04/18 02:57:24;;;;;;;10.02;5.68;;;7.90;93.20;;;;;;5039583;28;20036;-69
2021/04/18 02:59:50;;;;;;;10.00;5.28;;;7.90;93.10;;;;;;5047011;28;20063;-69
2021/04/18 03:02:16;;;;;;;10.02;6.18;;;7.80;93.30;;;;;;5041848;28;20025;-68
2021/04/18 03:04:42;;;;;;;9.75;6.45;;;7.80;93.30;;;;;;5023460;28;20034;-68
2021/04/18 03:07:08;;;;;;;8.32;5.53;;;7.80;93.60;;;;;;5024532;28;20080;-69
2021/04/18 03:09:33;;;;;;;9.48;5.78;;;7.90;93.50;;;;;;5029799;28;20069;-68
2021/04/18 03:11:59;;;;;;;10.15;5.88;;;7.90;93.60;;;;;;5024784;28;20033;-69
2021/04/18 03:14:25;;;;;;;8.98;5.20;;;7.80;93.50;;;;;;5023911;28;20033;-69
2021/04/18 03:16:50;;;;;;;8.68;5.53;;;7.80;93.60;;;;;;5024648;28;20032;-68
2021/04/18 03:19:16;;;;;;;13.98;6.35;;;7.80;93.60;;;;;;5024113;28;20044;-69
2021/04/18 03:21:42;;;;;;;8.57;5.35;;;7.80;93.70;;;;;;5024383;28;20018;-68
2021/04/18 03:24:08;;;;;;;8.05;5.03;;;7.70;94.10;;;;;;5024695;28;20059;-68
2021/04/18 03:26:33;;;;;;;9.10;5.78;;;7.70;94.40;;;;;;5024488;28;20028;-68
2021/04/18 03:28:59;;;;;;;9.85;5.93;;;7.70;94.40;;;;;;5032193;28;20021;-69
2021/04/18 03:31:25;;;;;;;11.23;5.82;;;7.60;94.10;;;;;;5023738;28;20029;-68
2021/04/18 03:33:51;;;;;;;10.13;5.25;;;7.70;94.00;;;;;;5024382;28;20037;-69
2021/04/18 03:36:16;;;;;;;11.25;6.35;;;7.70;94.00;;;;;;5024340;28;20434;-69
2021/04/18 03:38:42;;;;;;;11.23;5.43;;;7.70;93.80;;;;;;5023996;28;20480;-68
2021/04/18 03:41:08;;;;;;;8.25;5.38;;;7.70;94.00;;;;;;5032863;28;20032;-68
2021/04/18 03:43:34;;;;;;;9.27;5.57;;;7.60;94.20;;;;;;5043985;28;20036;-69
2021/04/18 03:45:59;;;;;;;9.65;5.55;;;7.60;94.40;;;;;;5036366;28;20025;-69
2021/04/18 03:48:25;;;;;;;11.10;5.95;;;7.60;94.30;;;;;;5023170;28;20025;-68
2021/04/18 03:50:51;;;;;;;9.02;5.53;;;7.70;94.30;;;;;;5026596;28;20108;-69
2021/04/18 03:53:17;;;;;;;8.27;5.22;;;7.60;94.30;;;;;;5023770;28;20108;-68
2021/04/18 03:55:42;;;;;;;10.38;5.65;;;7.60;94.60;;;;;;5024518;28;20673;-69
2021/04/18 03:58:08;;;;;;;10.82;5.70;;;7.50;94.70;;;;;;5023853;28;20039;-69
2021/04/18 04:00:34;;;;;;;10.32;5.65;;;7.50;94.60;;;;;;5022347;28;20140;-68
2021/04/18 04:03:00;;;;;;;7.53;5.00;;;7.50;94.90;;;;;;5023654;28;20021;-69
2021/04/18 04:05:26;;;;;;;8.60;5.43;;;7.50;94.50;;;;;;5037235;28;20032;-68
2021/04/18 04:07:52;;;;;;;9.40;5.55;;;7.60;94.80;;;;;;5045459;28;20049;-68
2021/04/18 04:10:17;;;;;;;9.85;6.10;;;7.50;94.60;;;;;;5041035;28;20112;-69
2021/04/18 04:12:43;;;;;;;8.73;5.95;;;7.50;94.90;;;;;;5048361;28;20491;-69
2021/04/18 04:15:09;;;;;;;9.10;5.68;;;7.50;94.90;;;;;;5046965;28;20051;-68
2021/04/18 04:17:35;;;;;;;9.73;6.47;;;7.50;94.90;;;;;;5048165;28;20037;-69
2021/04/18 04:20:01;;;;;;;10.82;5.63;;;7.40;94.90;;;;;;5032453;28;20574;-69
2021/04/18 04:22:26;;;;;;;10.20;6.68;;;7.40;95.10;;;;;;5029561;28;20030;-68
2021/04/18 04:24:53;;;;;;;8.68;5.53;;;7.40;95.20;;;;;;5027595;28;20387;-68
2021/04/18 04:27:20;;;;;;;8.07;5.32;;;7.40;95.10;;;;;;5027554;28;20026;-69
2021/04/18 04:29:47;;;;;;;9.38;5.72;;;7.50;95.20;;;;;;5027892;28;20032;-68
2021/04/18 04:32:13;;;;;;;8.27;5.63;;;7.50;95.20;;;;;;5027451;28;20167;-68
2021/04/18 04:34:40;;;;;;;10.65;6.03;;;7.50;95.10;;;;;;5027486;28;20061;-69
2021/04/18 04:37:05;;;;;;;11.25;5.95;;;7.50;95.20;;;;;;5027206;28;20108;-68
2021/04/18 04:39:31;;;;;;;8.23;6.43;;;7.50;95.20;;;;;;5028623;28;20543;-68
2021/04/18 04:41:57;;;;;;;7.65;5.20;;;7.50;95.30;;;;;;5027348;28;20512;-69
2021/04/18 04:44:23;;;;;;;9.10;5.20;;;7.50;95.40;;;;;;5039928;28;20103;-68
2021/04/18 04:46:48;;;;;;;9.80;5.93;;;7.50;95.30;;;;;;5047231;28;20028;-68
2021/04/18 04:49:14;;;;;;;10.40;6.07;;;7.60;95.70;;;;;;5030082;28;20079;-69
2021/04/18 04:51:40;;;;;;;9.13;5.75;;;7.50;95.50;;;;;;5032938;28;20072;-69
2021/04/18 04:54:06;;;;;;;11.88;6.95;;;7.50;95.70;;;;;;5040898;28;20070;-68
2021/04/18 04:56:32;;;;;;;9.38;5.75;;;7.50;95.50;;;;;;5032123;28;20428;-68
2021/04/18 04:58:57;;;;;;;9.65;5.97;;;7.50;95.50;;;;;;5027031;28;20026;-68
2021/04/18 05:01:23;;;;;;;8.00;5.13;;;7.50;95.60;;;;;;5026936;28;20484;-69
2021/04/18 05:03:49;;;;;;;9.80;5.90;;;7.50;95.50;;;;;;5026756;28;20026;-68
2021/04/18 05:06:15;;;;;;;11.02;5.85;;;7.50;95.70;;;;;;5027127;28;20025;-68
2021/04/18 05:08:41;;;;;;;9.93;5.90;;;7.40;95.60;;;;;;5035580;28;20612;-68
2021/04/18 05:11:06;;;;;;;10.13;5.95;;;7.40;96.00;;;;;;5045646;28;20045;-68
2021/04/18 05:13:32;;;;;;;9.15;6.22;;;7.40;95.70;;;;;;5031637;28;20045;-68
2021/04/18 05:15:58;;;;;;;9.80;6.20;;;7.40;95.70;;;;;;5027019;28;20424;-68
2021/04/18 05:18:24;;;;;;;9.70;6.43;;;7.50;96.00;;;;;;5027758;28;20049;-69
2021/04/18 05:20:50;;;;;;;9.50;5.68;;;7.50;95.70;;;;;;5045404;28;20639;-68
2021/04/18 05:23:15;;;;;;;11.02;6.22;;;7.60;95.70;;;;;;5045022;28;20032;-69
2021/04/18 05:25:41;;;;;;;10.63;6.28;;;7.70;95.70;;;;;;5045461;28;20029;-69
2021/04/18 05:28:07;;;;;;;10.43;5.82;;;7.70;95.90;;;;;;5026353;28;20045;-69
2021/04/18 05:30:33;;;;;;;12.15;6.72;;;7.80;95.90;;;;;;5025854;28;20684;-69
2021/04/18 05:32:59;;;;;;;13.52;6.35;;;7.80;96.00;;;;;;5031220;28;20048;-68
2021/04/18 05:35:25;;;;;;;8.85;5.57;;;7.90;96.00;;;;;;5025954;28;20029;-69
2021/04/18 05:37:51;;;;;;;7.60;4.60;;;7.90;96.00;;;;;;5026487;28;20097;-69
2021/04/18 05:40:17;;;;;;;10.13;5.60;;;7.90;95.80;;;;;;5025812;28;20037;-69
2021/04/18 05:42:42;;;;;;;9.77;5.13;;;7.90;95.70;;;;;;5026310;28;21029;-69
2021/04/18 05:45:09;;;;;;;8.55;5.75;;;8.00;95.80;;;;;;5032732;28;20037;-69
2021/04/18 05:47:35;;;;;;;8.98;5.15;;;8.00;95.70;;;;;;5028106;28;20029;-69
2021/04/18 05:50:01;;;;;;;9.70;4.95;;;8.10;95.90;;;;;;5028721;28;20491;-69
2021/04/18 05:52:26;;;;;;;10.23;5.95;;;8.20;96.20;;;;;;5045723;28;20041;-68
2021/04/18 05:54:52;;;;;;;9.15;5.32;;;8.20;95.40;;;;;;5027098;28;20040;-69
2021/04/18 05:57:19;;;;;;;8.98;5.35;;;8.30;95.50;;;;;;5025923;28;20084;-69
2021/04/18 05:59:45;;;;;;;9.85;4.97;;;8.40;95.90;;;;;;5041691;28;20083;-68
2021/04/18 06:02:11;;;;;;;10.43;5.65;;;8.30;95.30;;;;;;5038817;28;20041;-68
2021/04/18 06:04:37;;;;;;;10.45;6.03;;;8.40;95.90;;;;;;5025046;28;20484;-69
2021/04/18 06:07:04;;;;;;;10.07;6.10;;;8.40;95.70;;;;;;5025555;28;20029;-69
2021/04/18 06:09:30;;;;;;;11.95;6.38;;;8.50;95.10;;;;;;5026163;28;20053;-69
2021/04/18 06:11:56;;;;;;;16.95;9.68;;;8.60;95.40;;;;;;5042062;28;20060;-69
2021/04/18 06:14:22;;;;;;;15.35;9.52;;;8.70;96.20;;;;;;5045650;28;20025;-69
2021/04/18 06:16:49;;;;;;;11.00;6.50;;;8.70;96.70;;;;;;5042863;28;20037;-69
2021/04/18 06:19:15;;;;;;;14.32;6.55;;;8.60;96.60;;;;;;5025520;28;20060;-69
2021/04/18 06:21:41;;;;;;;9.85;6.07;;;8.70;96.60;;;;;;5027023;28;20338;-69
2021/04/18 06:24:08;;;;;;;8.02;5.65;;;8.70;96.60;;;;;;5025615;28;20080;-69
2021/04/18 06:26:33;;;;;;;10.60;6.15;;;8.60;96.70;;;;;;5025447;28;20051;-69
2021/04/18 06:28:59;;;;;;;10.35;6.90;;;8.60;97.00;;;;;;5033547;28;20033;-69
2021/04/18 06:31:25;;;;;;;10.75;5.97;;;8.60;96.70;;;;;;5031690;28;20039;-69
2021/04/18 06:33:50;;;;;;;8.93;5.88;;;8.60;96.60;;;;;;5024915;28;20021;-69
2021/04/18 06:36:17;;;;;;;9.57;6.15;;;8.70;96.70;;;;;;5025183;28;20087;-69
2021/04/18 06:38:43;;;;;;;9.27;5.55;;;8.80;96.60;;;;;;5039196;28;20025;-68
2021/04/18 06:41:14;;;;;;;7.55;5.00;;;8.80;96.40;;;;;;5036158;28;20021;-69
2021/04/18 06:43:41;;;;;;;10.30;6.50;;;8.90;95.60;;;;;;5041949;28;20033;-69
2021/04/18 06:46:07;;;;;;;11.70;6.97;;;9.00;95.10;;;;;;5037398;28;20048;-69
2021/04/18 06:48:34;;;;;;;10.38;6.63;;;9.20;94.60;;;;;;5026264;28;20025;-69
2021/04/18 06:50:59;;;;;;;16.48;6.18;;;9.20;94.00;;;;;;5036385;28;20033;-70
2021/04/18 06:53:25;;;;;;;8.65;5.45;;;9.20;93.90;;;;;;5028432;28;20060;-69
2021/04/18 06:55:52;;;;;;;7.57;5.20;;;9.20;94.10;;;;;;5026084;28;20090;-69
2021/04/18 06:58:17;;;;;;;10.38;6.53;;;9.10;94.40;;;;;;5023938;28;20057;-70
2021/04/18 07:00:43;;;;;;;10.15;6.85;;;9.00;94.90;;;;;;5023684;28;20072;-69
2021/04/18 07:03:21;;;;;;;11.00;6.88;;;9.20;94.80;;;;;;5027090;28;20030;-69
2021/04/18 07:05:49;;;;;;;12.52;7.20;;;9.70;94.80;;;;;;5024088;28;20613;-69
2021/04/18 07:08:20;;;;;;;9.35;5.88;;;10.60;93.60;;;;;;5028806;28;20085;-69
2021/04/18 07:10:46;;;;;;;11.50;5.65;;;11.50;92.70;;;;;;5033636;28;20630;-69
2021/04/18 07:13:16;;;;;;;8.95;5.97;;;12.30;91.30;;;;;;5031440;28;20113;-69
2021/04/18 07:15:43;;;;;;;10.82;5.55;;;13.30;89.70;;;;;;5042191;28;20125;-69
2021/04/18 07:18:12;;;;;;;9.02;5.47;;;14.40;86.90;;;;;;5038702;28;20056;-69
2021/04/18 07:20:52;;;;;;;8.80;5.80;;;14.50;83.60;;;;;;5043645;28;20422;-70
2021/04/18 07:23:26;;;;;;;9.23;5.80;;;14.80;81.50;;;;;;5027283;28;20025;-70
2021/04/18 07:25:52;;;;;;;;;;;15.40;78.00;;;;;;5043436;28;20013;-70
2021/04/18 07:28:26;;;;;;;10.73;6.22;;;15.70;77.70;;;;;;5033126;28;19909;-70
2021/04/18 07:30:55;;;;;;;10.30;5.65;;;16.40;74.80;;;;;;5043577;28;20129;-70
2021/04/18 07:33:21;;;;;;;9.63;5.95;;;15.70;73.70;;;;;;5035732;28;20041;-69
2021/04/18 07:35:47;;;;;;;8.70;5.55;;;13.90;78.70;;;;;;5023760;28;20029;-70
2021/04/18 07:38:23;;;;;;;8.45;5.55;;;12.30;80.80;;;;;;5037068;28;20032;-70
2021/04/18 07:40:56;;;;;;;9.77;5.50;;;11.60;82.80;;;;;;5025779;28;20422;-69
2021/04/18 07:43:22;;;;;;;8.45;5.20;;;11.10;84.20;;;;;;5032669;28;20083;-69
2021/04/18 07:45:50;;;;;;;9.25;5.80;;;10.90;85.00;;;;;;5028015;28;20067;-70
2021/04/18 07:48:17;;;;;;;9.10;6.00;;;10.80;85.60;;;;;;5041113;28;20060;-69
2021/04/18 07:50:45;;;;;;;10.40;6.30;;;10.50;87.70;;;;;;5035274;28;20032;-69
2021/04/18 07:53:16;;;;;;;9.43;6.63;;;10.60;88.60;;;;;;5036418;28;20036;-69
2021/04/18 07:55:41;;;;;;;9.25;5.72;;;10.60;89.00;;;;;;5030668;28;20025;-70
2021/04/18 07:58:07;;;;;;;10.82;6.03;;;10.70;89.20;;;;;;5029619;28;20041;-69
2021/04/18 08:00:33;;;;;;;8.50;5.82;;;10.60;89.20;;;;;;5024122;28;20034;-69
2021/04/18 08:03:00;;;;;;;9.38;6.75;;;10.70;89.30;;;;;;5023352;28;20045;-70
2021/04/18 08:05:31;;;;;;;12.63;7.10;;;10.80;89.20;;;;;;5033585;28;20549;-71
2021/04/18 08:08:16;;;;;;;10.98;6.53;;;10.80;88.80;;;;;;5030569;28;20617;-72
2021/04/18 08:10:47;;;;;;;13.07;6.90;;;10.90;88.80;;;;;;5025856;28;20720;-69
2021/04/18 08:13:23;;;;;;;10.23;6.57;;;11.00;89.60;;;;;;5032083;28;20673;-70
2021/04/18 08:15:56;;;;;;;12.07;6.72;;;11.00;88.70;;;;;;5026563;28;20017;-69
2021/04/18 08:18:46;;;;;;;9.98;6.60;;;11.00;88.10;;;;;;5023667;28;20025;-69
2021/04/18 08:21:39;;;;;;;12.15;6.32;;;11.20;87.10;;;;;;5037068;28;20128;-69
2021/04/18 08:24:16;;;;;;;10.13;6.28;;;11.20;87.50;;;;;;5023838;28;20041;-69
2021/04/18 08:27:00;;;;;;;8.68;6.60;;;11.30;89.00;;;;;;5023636;28;20025;-69
2021/04/18 08:29:26;;;;;;;22.50;8.13;;;11.20;88.20;;;;;;5043493;28;20095;-70
2021/04/18 08:32:06;;;;;;;11.82;7.65;;;11.30;87.90;;;;;;5031109;28;20045;-69
2021/04/18 08:34:33;;;;;;;11.43;7.25;;;11.20;87.80;;;;;;5032643;28;20417;-69
2021/04/18 08:37:01;;;;;;;46.38;9.30;;;11.20;87.10;;;;;;5026576;28;20052;-70
2021/04/18 08:39:30;;;;;;;34.03;8.75;;;12.60;86.90;;;;;;5022365;28;20402;-70
2021/04/18 08:42:01;;;;;;;17.92;8.80;;;14.90;81.20;;;;;;5022885;28;20073;-69
2021/04/18 08:44:39;;;;;;;12.93;7.20;;;16.10;77.60;;;;;;5022400;28;20373;-69
2021/04/18 08:47:06;;;;;;;10.43;7.43;;;17.40;75.80;;;;;;5026248;28;20029;-69
2021/04/18 08:49:36;;;;;;;17.52;6.55;;;16.70;74.60;;;;;;5034919;28;20035;-69
2021/04/18 08:52:08;;;;;;;11.70;6.53;;;16.60;72.40;;;;;;5041827;28;20041;-70
2021/04/18 08:54:37;;;;;;;12.27;7.05;;;16.10;70.80;;;;;;5030697;28;20025;-69
2021/04/18 08:57:10;;;;;;;14.38;7.10;;;15.50;74.00;;;;;;5035298;28;20079;-69
2021/04/18 08:59:37;;;;;;;13.68;6.65;;;15.00;77.20;;;;;;5026734;28;20731;-69
2021/04/18 09:02:10;;;;;;;11.45;6.03;;;14.00;78.10;;;;;;5027166;28;20439;-69
2021/04/18 09:04:45;;;;;;;10.05;6.60;;;14.20;78.60;;;;;;5026561;28;20029;-69
2021/04/18 09:07:16;;;;;;;10.73;6.55;;;14.10;75.50;;;;;;5028601;28;20037;-69
2021/04/18 09:09:43;;;;;;;10.43;5.85;;;14.40;75.70;;;;;;5042069;28;20080;-69
2021/04/18 09:12:09;;;;;;;8.68;5.93;;;14.70;74.60;;;;;;5033898;28;20037;-69
2021/04/18 09:14:39;;;;;;;11.32;7.38;;;14.30;75.70;;;;;;5026441;28;20045;-69
2021/04/18 09:17:12;;;;;;;13.07;6.22;;;14.60;76.80;;;;;;5036747;28;20083;-69
2021/04/18 09:19:39;;;;;;;10.57;5.70;;;13.80;72.80;;;;;;5031710;28;20040;-69
2021/04/18 09:22:08;;;;;;;10.23;5.80;;;13.80;74.10;;;;;;5045368;28;20024;-69
2021/04/18 09:24:36;;;;;;;8.05;6.07;;;13.50;75.80;;;;;;5045216;28;20025;-70
2021/04/18 09:27:08;;;;;;;12.48;6.65;;;13.40;74.90;;;;;;5029075;28;20502;-73
2021/04/18 09:29:39;;;;;;;10.52;7.10;;;13.30;75.00;;;;;;5039167;28;20029;-72
2021/04/18 09:32:08;;;;;;;20.85;6.95;;;13.30;74.80;;;;;;5032327;28;20115;-69
2021/04/18 09:34:36;;;;;;;11.85;6.82;;;13.40;74.80;;;;;;5046147;28;20057;-71
2021/04/18 09:37:06;;;;;;;11.63;6.35;;;13.30;74.10;;;;;;5031713;28;20677;-71
2021/04/18 09:39:33;;;;;;;9.25;5.68;;;13.90;74.10;;;;;;5044078;28;20028;-71
2021/04/18 09:42:00;;;;;;;11.30;6.57;;;14.10;73.60;;;;;;5031619;28;20029;-71
2021/04/18 09:44:47;;;;;;;10.07;5.75;;;13.80;73.20;;;;;;5025419;28;20037;-72
2021/04/18 09:47:23;;;;;;;8.35;5.00;;;13.70;74.40;;;;;;5029992;28;20037;-71
2021/04/18 09:49:55;;;;;;;8.75;5.15;;;13.60;70.50;;;;;;5038389;28;20471;-72
2021/04/18 09:52:32;;;;;;;12.43;8.20;;;13.60;70.20;;;;;;5031081;28;20041;-71
2021/04/18 09:55:16;;;;;;;12.50;5.70;;;13.90;70.90;;;;;;5036073;28;20025;-72
2021/04/18 09:58:00;;;;;;;7.15;4.88;;;14.10;70.90;;;;;;5037564;28;20152;-71
2021/04/18 10:00:33;;;;;;;7.18;4.97;;;13.80;69.60;;;;;;5030183;28;20040;-71
2021/04/18 10:03:13;;;;;;;8.50;4.85;;;13.70;68.40;;;;;;5024342;28;20049;-71
2021/04/18 10:05:45;;;;;;;6.90;4.13;;;13.90;68.10;;;;;;5024072;28;20140;-72
2021/04/18 10:08:18;;;;;;;12.18;4.35;;;14.20;67.60;;;;;;5041983;28;20087;-71
2021/04/18 10:10:44;;;;;;;20.67;5.07;;;14.30;68.90;;;;;;5043468;28;20033;-72
2021/04/18 10:13:10;;;;;;;9.40;4.43;;;14.30;68.80;;;;;;5029684;28;20033;-71
2021/04/18 10:15:55;;;;;;;38.30;5.18;;;14.20;67.40;;;;;;5025330;28;20060;-71
2021/04/18 10:18:21;;;;;;;32.10;4.13;;;14.20;66.50;;;;;;5029000;28;20484;-72
2021/04/18 10:20:48;;;;;;;14.02;3.45;;;14.20;64.50;;;;;;5037610;28;20053;-72
2021/04/18 10:23:14;;;;;;;6.28;3.03;;;14.30;63.20;;;;;;5030067;28;20326;-71
2021/04/18 10:25:41;;;;;;;10.48;3.88;;;14.30;63.60;;;;;;5024563;28;20029;-71
2021/04/18 10:28:09;;;;;;;14.65;3.90;;;14.20;63.10;;;;;;5026428;28;20032;-71
2021/04/18 10:30:37;;;;;;;7.25;3.38;;;14.30;63.70;;;;;;5024813;28;20037;-71
2021/04/18 10:33:02;;;;;;;6.70;2.88;;;14.30;62.00;;;;;;5024872;28;20559;-71
2021/04/18 10:35:28;;;;;;;6.55;3.30;;;14.20;61.70;;;;;;5038047;28;20048;-72
2021/04/18 10:37:54;;;;;;;5.57;3.40;;;14.00;61.20;;;;;;5025720;28;20028;-71
2021/04/18 10:40:22;;;;;;;6.15;2.88;;;14.10;62.60;;;;;;5042982;28;20024;-72
2021/04/18 10:42:49;;;;;;;6.25;3.22;;;14.20;62.80;;;;;;5042987;28;20190;-72
2021/04/18 10:45:16;;;;;;;5.97;3.05;;;14.10;63.80;;;;;;5039566;28;20033;-71
2021/04/18 10:47:42;;;;;;;7.25;3.92;;;14.10;63.60;;;;;;5034506;28;20021;-71
2021/04/18 10:50:09;;;;;;;6.68;3.72;;;14.40;65.10;;;;;;5024425;28;20468;-71
2021/04/18 10:52:34;;;;;;;7.90;4.80;;;14.10;64.20;;;;;;5038903;28;21223;-71
2021/04/18 10:55:00;;;;;;;6.70;4.32;;;14.20;65.20;;;;;;5024634;28;20029;-71
2021/04/18 10:57:27;;;;;;;6.60;3.88;;;14.20;64.00;;;;;;5038118;28;20052;-72
2021/04/18 10:59:53;;;;;;;8.43;4.07;;;14.20;63.10;;;;;;5041834;28;20025;-71
2021/04/18 11:02:18;;;;;;;6.75;4.13;;;14.00;63.20;;;;;;5044224;28;20033;-71
2021/04/18 11:04:44;;;;;;;6.53;3.58;;;14.30;64.30;;;;;;5028900;28;20114;-71
2021/04/18 11:07:10;;;;;;;5.30;3.30;;;14.50;62.90;;;;;;5023866;28;20037;-72
2021/04/18 11:09:37;;;;;;;7.70;3.45;;;14.50;64.40;;;;;;5028326;28;20049;-71
2021/04/18 11:12:12;;;;;;;5.45;3.38;;;14.60;63.60;;;;;;5023574;28;20049;-72
2021/04/18 11:14:38;;;;;;;9.27;3.50;;;14.50;63.50;;;;;;5030363;28;20133;-71
2021/04/18 11:17:04;;;;;;;5.28;3.08;;;14.60;63.30;;;;;;5024049;28;20080;-72
2021/04/18 11:19:29;;;;;;;5.85;3.13;;;14.80;62.60;;;;;;5034103;28;20464;-71
2021/04/18 11:21:55;;;;;;;8.00;3.35;;;15.10;61.80;;;;;;5028845;28;20175;-70
2021/04/18 11:24:20;;;;;;;4.78;2.50;;;15.60;61.80;;;;;;5023989;28;20022;-72
2021/04/18 11:26:46;;;;;;;5.65;2.88;;;15.70;60.80;;;;;;5029687;28;20036;-71
2021/04/18 11:29:12;;;;;;;5.15;2.92;;;15.50;60.60;;;;;;5030428;28;20172;-71
2021/04/18 11:31:38;;;;;;;5.85;3.28;;;15.40;60.30;;;;;;5041169;28;20029;-71
2021/04/18 11:34:03;;;;;;;5.20;2.83;;;15.10;59.90;;;;;;5043259;28;20029;-73
2021/04/18 11:36:29;;;;;;;5.60;2.95;;;15.10;61.70;;;;;;5042178;28;20494;-73
2021/04/18 11:38:55;;;;;;;6.20;3.03;;;15.00;61.60;;;;;;5037806;28;20099;-72
2021/04/18 11:41:20;;;;;;;9.13;2.97;;;15.00;60.30;;;;;;5034030;28;20028;-74
2021/04/18 11:43:46;;;;;;;6.18;2.70;;;15.30;61.20;;;;;;5023419;28;20024;-71
2021/04/18 11:46:12;;;;;;;6.50;3.13;;;15.70;63.60;;;;;;5030517;28;20403;-74
2021/04/18 11:48:39;;;;;;;11.02;4.18;;;16.00;63.30;;;;;;5029410;28;20031;-73
2021/04/18 11:51:05;;;;;;;8.23;4.57;;;16.10;63.20;;;;;;5031446;28;20119;-72
2021/04/18 11:53:32;;;;;;;6.55;4.72;;;15.90;64.90;;;;;;5035946;28;20037;-71
2021/04/18 11:55:57;;;;;;;6.65;3.83;;;16.20;67.30;;;;;;5023050;28;20154;-72
2021/04/18 11:58:23;;;;;;;6.75;3.67;;;16.10;66.30;;;;;;5025134;28;20108;-72
2021/04/18 12:00:49;;;;;;;5.63;3.60;;;15.80;66.60;;;;;;5030379;28;20159;-73
2021/04/18 12:03:17;;;;;;;9.43;4.25;;;15.50;65.90;;;;;;5040023;28;20044;-72
2021/04/18 12:05:44;;;;;;;6.90;4.53;;;15.30;68.00;;;;;;5036708;28;20368;-73
2021/04/18 12:08:16;;;;;;;6.63;4.25;;;15.10;68.40;;;;;;5030949;28;20633;-72
2021/04/18 12:10:42;;;;;;;9.85;4.57;;;14.80;68.20;;;;;;5043179;28;20025;-72
2021/04/18 12:13:08;;;;;;;9.23;3.95;;;14.40;69.20;;;;;;5036793;28;20384;-72
2021/04/18 12:15:33;;;;;;;8.10;4.35;;;14.70;69.60;;;;;;5026977;28;20036;-71
2021/04/18 12:17:59;;;;;;;7.13;4.38;;;14.80;69.30;;;;;;5026174;28;20605;-72
2021/04/18 12:20:25;;;;;;;6.70;4.55;;;15.10;69.10;;;;;;5040791;28;20033;-72
2021/04/18 12:22:51;;;;;;;8.02;4.70;;;15.00;69.00;;;;;;5023457;28;20053;-72
2021/04/18 12:25:17;;;;;;;10.85;5.25;;;14.80;69.60;;;;;;5022794;28;20022;-71
2021/04/18 12:27:43;;;;;;;6.72;4.20;;;14.60;69.60;;;;;;5025400;28;20025;-72
2021/04/18 12:30:10;;;;;;;6.72;4.55;;;14.60;70.80;;;;;;5047468;28;20025;-72
2021/04/18 12:32:36;;;;;;;8.48;4.72;;;14.60;70.40;;;;;;5045027;28;20120;-73
2021/04/18 12:35:04;;;;;;;8.98;5.25;;;14.30;70.10;;;;;;5033740;28;20467;-72
2021/04/18 12:37:29;;;;;;;8.13;4.93;;;14.30;70.80;;;;;;5028370;28;20053;-72
2021/04/18 12:39:56;;;;;;;7.32;4.30;;;14.40;71.30;;;;;;5027027;28;20068;-72
2021/04/18 12:42:23;;;;;;;8.50;4.30;;;14.20;70.70;;;;;;5039985;28;20534;-72
2021/04/18 12:44:50;;;;;;;7.50;4.22;;;14.10;70.60;;;;;;5043251;28;20029;-72
2021/04/18 12:47:17;;;;;;;7.65;3.88;;;14.10;71.00;;;;;;5032452;28;20442;-72
2021/04/18 12:49:43;;;;;;;6.78;4.30;;;14.10;70.80;;;;;;5026789;28;20025;-72